Time;durP1;ratioP1;P1;durP2;ratioP2;P2;SDS_P1;SDS_P2;PMS_P1;PMS_P2;Temp;Humidity;BMP_temperature;BMP_pressure;BME280_temperature;BME280_humidity;BME280_pressure;Samples;Min_cycle;Max_cycle;Signal;HPM_P1;HPM_P2
2022/09/12 00:01:02;;;;;;;19.65;11.93;;;;;;;;;;5092625;28;20031;-79
2022/09/12 00:03:28;;;;;;;22.65;13.07;;;;;;;;;;5092067;28;20126;-79
2022/09/12 00:05:54;;;;;;;19.75;12.35;;;;;;;;;;5092619;28;20024;-79
2022/09/12 00:08:20;;;;;;;19.20;12.30;;;;;;;;;;5092662;28;20083;-79
2022/09/12 00:10:46;;;;;;;24.00;13.70;;;;;;;;;;5092404;28;20028;-79
2022/09/12 00:13:12;;;;;;;20.13;13.40;;;;;;;;;;5092355;28;20359;-79
2022/09/12 00:15:39;;;;;;;19.52;13.10;;;;;;;;;;5092585;28;20451;-79
2022/09/12 00:18:05;;;;;;;21.98;12.82;;;;;;;;;;5105267;28;20122;-79
2022/09/12 00:20:31;;;;;;;21.58;13.90;;;;;;;;;;5112731;28;20059;-80
2022/09/12 00:22:57;;;;;;;18.35;12.40;;;;;;;;;;5094449;28;20024;-79
2022/09/12 00:25:23;;;;;;;19.88;12.27;;;;;;;;;;5112701;28;20134;-79
2022/09/12 00:27:49;;;;;;;19.23;12.10;;;;;;;;;;5112897;28;20054;-79
2022/09/12 00:30:16;;;;;;;16.75;11.68;;;;;;;;;;5112654;28;20640;-79
2022/09/12 00:32:42;;;;;;;18.77;11.80;;;;;;;;;;5112441;28;20050;-79
2022/09/12 00:35:08;;;;;;;16.65;11.48;;;;;;;;;;5094281;28;20458;-79
2022/09/12 00:37:34;;;;;;;18.85;12.00;;;;;;;;;;5112539;28;20020;-79
2022/09/12 00:40:00;;;;;;;20.02;12.65;;;;;;;;;;5112550;28;20012;-79
2022/09/12 00:42:26;;;;;;;19.83;12.88;;;;;;;;;;5112408;28;20081;-79
2022/09/12 00:44:53;;;;;;;19.15;12.27;;;;;;;;;;5112546;28;20020;-79
2022/09/12 00:47:21;;;;;;;21.95;12.65;;;;;;;;;;5112501;28;20479;-79
2022/09/12 00:50:07;;;;;;;15.82;11.00;;;;;;;;;;5112353;28;20110;-79
2022/09/12 00:52:36;;;;;;;22.50;13.10;;;;;;;;;;5112086;28;20088;-79
2022/09/12 00:55:07;;;;;;;19.75;12.70;;;;;;;;;;5105130;28;20518;-79
2022/09/12 00:57:37;;;;;;;19.52;12.75;;;;;;;;;;5091872;28;20023;-79
2022/09/12 01:00:14;;;;;;;19.15;12.52;;;;;;;;;;5091840;28;20024;-79
2022/09/12 01:02:41;;;;;;;21.92;14.05;;;;;;;;;;5092148;28;20431;-79
2022/09/12 01:05:07;;;;;;;25.13;14.65;;;;;;;;;;5073763;28;20035;-79
2022/09/12 01:07:35;;;;;;;25.08;15.13;;;;;;;;;;5091972;28;20020;-79
2022/09/12 01:10:01;;;;;;;27.98;14.52;;;;;;;;;;5092066;28;20031;-79
2022/09/12 01:12:28;;;;;;;24.00;14.38;;;;;;;;;;5090626;28;20052;-79
2022/09/12 01:14:54;;;;;;;25.70;15.00;;;;;;;;;;5092111;28;20020;-79
2022/09/12 01:17:20;;;;;;;27.17;15.05;;;;;;;;;;5095594;28;20020;-79
2022/09/12 01:19:46;;;;;;;23.85;13.98;;;;;;;;;;5095929;28;20016;-79
2022/09/12 01:22:38;;;;;;;28.00;16.48;;;;;;;;;;5095862;28;20359;-79
2022/09/12 01:25:23;;;;;;;26.92;15.80;;;;;;;;;;5093076;28;20465;-79
2022/09/12 01:28:08;;;;;;;23.52;14.43;;;;;;;;;;5095938;28;20027;-79
2022/09/12 01:30:44;;;;;;;27.38;16.15;;;;;;;;;;5095678;28;20026;-79
2022/09/12 01:33:25;;;;;;;26.67;15.20;;;;;;;;;;5111121;28;20377;-79
2022/09/12 01:35:51;;;;;;;25.77;14.23;;;;;;;;;;5116007;28;20027;-79
2022/09/12 01:38:23;;;;;;;29.20;17.17;;;;;;;;;;5115990;28;20081;-79
2022/09/12 01:41:01;;;;;;;28.15;15.45;;;;;;;;;;5115923;28;20024;-79
2022/09/12 01:43:34;;;;;;;27.75;15.68;;;;;;;;;;5115803;28;20039;-79
2022/09/12 01:46:07;;;;;;;29.15;16.55;;;;;;;;;;5115867;28;20424;-79
2022/09/12 01:48:36;;;;;;;25.77;15.18;;;;;;;;;;5115868;28;20023;-79
2022/09/12 01:51:07;;;;;;;26.98;14.45;;;;;;;;;;5115655;28;20016;-79
2022/09/12 01:53:39;;;;;;;21.95;14.18;;;;;;;;;;5115843;28;20032;-79
2022/09/12 01:56:21;;;;;;;24.15;14.45;;;;;;;;;;5115817;28;20362;-79
2022/09/12 01:59:10;;;;;;;23.63;14.15;;;;;;;;;;5115517;28;20033;-80
2022/09/12 02:01:41;;;;;;;25.00;15.40;;;;;;;;;;5105092;28;20072;-79
2022/09/12 02:04:12;;;;;;;27.73;15.27;;;;;;;;;;5115441;28;20034;-79
2022/09/12 02:06:44;;;;;;;23.90;14.60;;;;;;;;;;5115529;28;20071;-80
2022/09/12 02:09:12;;;;;;;25.27;13.20;;;;;;;;;;5115459;28;20024;-79
2022/09/12 02:11:40;;;;;;;22.00;13.68;;;;;;;;;;5115433;28;20046;-79
2022/09/12 02:14:08;;;;;;;25.45;14.77;;;;;;;;;;5115069;28;20043;-79
2022/09/12 02:16:40;;;;;;;24.40;13.52;;;;;;;;;;5115194;28;20026;-79
2022/09/12 02:19:15;;;;;;;25.02;13.98;;;;;;;;;;5094777;28;20103;-79
2022/09/12 02:21:44;;;;;;;19.80;12.77;;;;;;;;;;5094710;28;20020;-79
2022/09/12 02:24:14;;;;;;;22.52;14.35;;;;;;;;;;5094710;28;20027;-79
2022/09/12 02:27:00;;;;;;;32.85;15.95;;;;;;;;;;5092770;28;20024;-79
2022/09/12 02:29:26;;;;;;;26.02;13.75;;;;;;;;;;5093060;28;20024;-79
2022/09/12 02:31:57;;;;;;;23.35;12.70;;;;;;;;;;5096815;28;20046;-80
2022/09/12 02:34:23;;;;;;;20.23;13.43;;;;;;;;;;5115024;28;20023;-79
2022/09/12 02:37:02;;;;;;;22.27;13.38;;;;;;;;;;5114918;28;20080;-79
2022/09/12 02:39:28;;;;;;;21.98;12.75;;;;;;;;;;5114934;28;20035;-79
2022/09/12 02:41:55;;;;;;;20.45;12.98;;;;;;;;;;5114767;28;20035;-79
2022/09/12 02:44:22;;;;;;;22.50;12.93;;;;;;;;;;5114664;28;20031;-79
2022/09/12 02:46:50;;;;;;;21.40;12.98;;;;;;;;;;5114564;28;20458;-79
2022/09/12 02:49:16;;;;;;;25.30;13.93;;;;;;;;;;5114549;28;20425;-79
2022/09/12 02:51:43;;;;;;;23.70;13.25;;;;;;;;;;5114686;28;20085;-79
2022/09/12 02:54:10;;;;;;;24.95;14.27;;;;;;;;;;5114456;28;20028;-79
2022/09/12 02:56:40;;;;;;;23.80;13.60;;;;;;;;;;5114339;28;20023;-79
2022/09/12 02:59:07;;;;;;;22.50;13.10;;;;;;;;;;5114165;28;20039;-79
2022/09/12 03:01:39;;;;;;;29.73;16.55;;;;;;;;;;5114275;28;20019;-80
2022/09/12 03:04:05;;;;;;;;;;;;;;;;;;5114601;28;20031;-79
2022/09/12 03:06:37;;;;;;;27.15;13.93;;;;;;;;;;5114294;28;19904;-79
2022/09/12 03:09:17;;;;;;;25.02;14.68;;;;;;;;;;5114034;28;20012;-79
2022/09/12 03:11:57;;;;;;;23.50;14.18;;;;;;;;;;5114076;28;20322;-79
2022/09/12 03:14:26;;;;;;;22.98;14.00;;;;;;;;;;5113858;28;20043;-79
2022/09/12 03:17:03;;;;;;;27.17;14.00;;;;;;;;;;5114063;28;20492;-79
2022/09/12 03:19:52;;;;;;;27.98;15.13;;;;;;;;;;5113876;28;20039;-79
2022/09/12 03:22:28;;;;;;;25.15;14.60;;;;;;;;;;5113967;28;20496;-80
2022/09/12 03:25:12;;;;;;;25.20;15.02;;;;;;;;;;5113802;28;20028;-79
2022/09/12 03:27:40;;;;;;;25.38;14.73;;;;;;;;;;5113902;28;20117;-79
2022/09/12 03:30:06;;;;;;;26.05;14.45;;;;;;;;;;5113684;28;20485;-79
2022/09/12 03:32:39;;;;;;;27.92;16.25;;;;;;;;;;5095305;28;20096;-79
2022/09/12 03:35:06;;;;;;;26.27;15.43;;;;;;;;;;5113710;28;20016;-79
2022/09/12 03:37:32;;;;;;;29.15;16.67;;;;;;;;;;5113460;28;20024;-79
2022/09/12 03:39:58;;;;;;;30.48;16.40;;;;;;;;;;5112699;28;20095;-79
2022/09/12 03:42:24;;;;;;;33.33;18.52;;;;;;;;;;5113715;28;20048;-79
2022/09/12 03:44:50;;;;;;;34.40;17.30;;;;;;;;;;5113467;28;20024;-80
2022/09/12 03:47:16;;;;;;;35.92;18.63;;;;;;;;;;5113395;28;20030;-79
2022/09/12 03:49:42;;;;;;;41.70;20.55;;;;;;;;;;5113422;28;20728;-79
2022/09/12 03:52:08;;;;;;;38.60;19.20;;;;;;;;;;5113757;28;20027;-79
2022/09/12 03:54:34;;;;;;;35.53;17.52;;;;;;;;;;5113198;28;20067;-79
2022/09/12 03:57:00;;;;;;;32.47;17.90;;;;;;;;;;5113065;28;20054;-79
2022/09/12 03:59:26;;;;;;;33.50;17.30;;;;;;;;;;5112980;28;20446;-79
2022/09/12 04:01:52;;;;;;;43.15;18.48;;;;;;;;;;5112837;28;20050;-79
2022/09/12 04:04:18;;;;;;;31.88;17.27;;;;;;;;;;5112621;28;20470;-79
2022/09/12 04:06:44;;;;;;;31.48;16.67;;;;;;;;;;5112917;28;20024;-79
2022/09/12 04:09:10;;;;;;;32.97;17.60;;;;;;;;;;5112681;28;20035;-79
2022/09/12 04:11:36;;;;;;;31.70;17.73;;;;;;;;;;5112882;28;20023;-79
2022/09/12 04:14:02;;;;;;;29.67;16.63;;;;;;;;;;5112770;28;20084;-79
2022/09/12 04:16:28;;;;;;;34.03;17.55;;;;;;;;;;5112564;28;20019;-79
2022/09/12 04:18:54;;;;;;;32.55;17.30;;;;;;;;;;5112321;28;20023;-79
2022/09/12 04:21:21;;;;;;;38.60;18.88;;;;;;;;;;5112280;28;20035;-79
2022/09/12 04:23:47;;;;;;;33.90;17.73;;;;;;;;;;5112473;28;20153;-79
2022/09/12 04:26:14;;;;;;;36.15;18.17;;;;;;;;;;5112685;28;20016;-79
2022/09/12 04:28:40;;;;;;;34.55;17.60;;;;;;;;;;5112626;28;20019;-79
2022/09/12 04:31:08;;;;;;;29.00;17.25;;;;;;;;;;5112588;28;20058;-80
2022/09/12 04:33:36;;;;;;;30.23;16.33;;;;;;;;;;5112710;28;20472;-79
2022/09/12 04:36:03;;;;;;;33.80;17.52;;;;;;;;;;5112511;28;20060;-79
2022/09/12 04:38:30;;;;;;;33.55;18.65;;;;;;;;;;5112381;28;20128;-79
2022/09/12 04:40:56;;;;;;;33.13;17.73;;;;;;;;;;5112389;28;20034;-79
2022/09/12 04:43:22;;;;;;;37.50;18.17;;;;;;;;;;5112203;28;20477;-80
2022/09/12 04:45:48;;;;;;;34.33;18.52;;;;;;;;;;5112292;28;20076;-79
2022/09/12 04:48:14;;;;;;;29.17;17.52;;;;;;;;;;5112362;28;20024;-79
2022/09/12 04:50:40;;;;;;;32.85;17.52;;;;;;;;;;5112226;28;20416;-79
2022/09/12 04:53:06;;;;;;;36.13;17.73;;;;;;;;;;5112180;28;20040;-79
2022/09/12 04:55:34;;;;;;;38.05;19.50;;;;;;;;;;5082531;28;20570;-79
2022/09/12 04:58:00;;;;;;;34.63;18.15;;;;;;;;;;5091898;28;20498;-79
2022/09/12 05:00:27;;;;;;;37.20;19.20;;;;;;;;;;5092121;28;20040;-79
2022/09/12 05:02:53;;;;;;;36.15;18.80;;;;;;;;;;5091673;28;20024;-79
2022/09/12 05:05:20;;;;;;;38.80;19.55;;;;;;;;;;5091922;28;20025;-79
2022/09/12 05:07:46;;;;;;;41.47;19.25;;;;;;;;;;5091734;28;20016;-79
2022/09/12 05:10:12;;;;;;;36.42;18.42;;;;;;;;;;5091838;28;20016;-79
2022/09/12 05:12:38;;;;;;;51.80;22.55;;;;;;;;;;5091779;28;20051;-79
2022/09/12 05:15:05;;;;;;;42.88;20.67;;;;;;;;;;5091933;28;20448;-79
2022/09/12 05:17:31;;;;;;;36.50;19.02;;;;;;;;;;5091888;28;20024;-79
2022/09/12 05:19:57;;;;;;;38.38;20.02;;;;;;;;;;5091960;28;20031;-79
2022/09/12 05:22:24;;;;;;;41.88;20.05;;;;;;;;;;5073577;28;20103;-79
2022/09/12 05:24:50;;;;;;;42.03;20.48;;;;;;;;;;5091577;28;20032;-79
2022/09/12 05:27:16;;;;;;;40.58;20.13;;;;;;;;;;5091676;28;20335;-79
2022/09/12 05:29:42;;;;;;;35.80;19.77;;;;;;;;;;5091564;28;20442;-79
2022/09/12 05:32:08;;;;;;;45.17;21.50;;;;;;;;;;5091509;28;20125;-79
2022/09/12 05:34:34;;;;;;;47.20;23.17;;;;;;;;;;5091641;28;20068;-79
2022/09/12 05:37:00;;;;;;;42.28;20.92;;;;;;;;;;5091957;28;20032;-79
2022/09/12 05:39:26;;;;;;;45.67;21.70;;;;;;;;;;5091599;28;20519;-79
2022/09/12 05:41:53;;;;;;;58.13;24.95;;;;;;;;;;5091399;28;20043;-79
2022/09/12 05:44:19;;;;;;;53.45;24.40;;;;;;;;;;5091419;28;20028;-79
2022/09/12 05:46:49;;;;;;;55.85;24.23;;;;;;;;;;5091382;28;20017;-79
2022/09/12 05:49:15;;;;;;;62.42;26.02;;;;;;;;;;5091608;28;20099;-79
2022/09/12 05:51:42;;;;;;;49.63;23.42;;;;;;;;;;5091418;28;20024;-79
2022/09/12 05:54:10;;;;;;;51.53;24.60;;;;;;;;;;5091473;28;20036;-79
2022/09/12 05:56:38;;;;;;;55.90;25.25;;;;;;;;;;5091058;28;20339;-79
2022/09/12 05:59:05;;;;;;;62.47;25.92;;;;;;;;;;5091211;28;20099;-79
2022/09/12 06:01:32;;;;;;;54.60;24.15;;;;;;;;;;5091906;28;20339;-79
2022/09/12 06:03:59;;;;;;;52.72;24.90;;;;;;;;;;5094915;28;20020;-79
2022/09/12 06:06:26;;;;;;;49.03;23.27;;;;;;;;;;5094765;28;20054;-79
2022/09/12 06:08:53;;;;;;;45.58;22.15;;;;;;;;;;5095020;28;20013;-80
2022/09/12 06:11:24;;;;;;;38.42;20.70;;;;;;;;;;5094826;28;20054;-79
2022/09/12 06:13:51;;;;;;;64.63;27.55;;;;;;;;;;5094502;28;20484;-80
2022/09/12 06:16:19;;;;;;;58.30;25.63;;;;;;;;;;5094924;28;20036;-79
2022/09/12 06:18:49;;;;;;;58.78;26.38;;;;;;;;;;5113119;28;20023;-79
2022/09/12 06:21:16;;;;;;;55.65;23.65;;;;;;;;;;5115061;28;20023;-79
2022/09/12 06:23:43;;;;;;;60.85;26.23;;;;;;;;;;5115125;28;20061;-79
2022/09/12 06:26:10;;;;;;;58.78;26.48;;;;;;;;;;5114746;28;20121;-79
2022/09/12 06:28:37;;;;;;;63.60;26.95;;;;;;;;;;5114784;28;20027;-80
2022/09/12 06:31:07;;;;;;;57.28;25.52;;;;;;;;;;5114952;28;20043;-79
2022/09/12 06:33:34;;;;;;;58.38;25.98;;;;;;;;;;5114897;28;20374;-79
2022/09/12 06:36:07;;;;;;;70.30;29.02;;;;;;;;;;5114951;28;20023;-79
2022/09/12 06:38:33;;;;;;;59.40;27.23;;;;;;;;;;5114761;28;20119;-79
2022/09/12 06:41:00;;;;;;;64.72;27.15;;;;;;;;;;5114514;28;20519;-79
2022/09/12 06:43:28;;;;;;;70.72;28.55;;;;;;;;;;5114651;28;20390;-79
2022/09/12 06:45:55;;;;;;;74.90;30.40;;;;;;;;;;5114379;28;20016;-79
2022/09/12 06:48:21;;;;;;;73.28;29.83;;;;;;;;;;5114469;28;20022;-79
2022/09/12 06:50:57;;;;;;;79.95;32.05;;;;;;;;;;5114483;28;20027;-79
2022/09/12 06:53:24;;;;;;;79.28;32.03;;;;;;;;;;5114657;28;20438;-79
2022/09/12 06:56:00;;;;;;;78.57;33.15;;;;;;;;;;5115974;28;20082;-79
2022/09/12 06:58:27;;;;;;;91.90;34.30;;;;;;;;;;5114462;28;20134;-79
2022/09/12 07:00:53;;;;;;;95.22;35.40;;;;;;;;;;5114520;28;20077;-80
2022/09/12 07:03:19;;;;;;;76.97;31.00;;;;;;;;;;5114362;28;20088;-79
2022/09/12 07:05:46;;;;;;;68.25;29.55;;;;;;;;;;5114402;28;20130;-79
2022/09/12 07:08:12;;;;;;;81.88;33.55;;;;;;;;;;5114282;28;20102;-79
2022/09/12 07:10:38;;;;;;;82.85;33.67;;;;;;;;;;5114251;28;20016;-79
2022/09/12 07:13:04;;;;;;;73.30;31.83;;;;;;;;;;5114082;28;20047;-79
2022/09/12 07:15:33;;;;;;;86.95;35.63;;;;;;;;;;5113995;28;20519;-79
2022/09/12 07:18:00;;;;;;;86.78;35.80;;;;;;;;;;5114030;28;20051;-79
2022/09/12 07:20:26;;;;;;;85.43;35.97;;;;;;;;;;5113803;28;20050;-79
2022/09/12 07:22:52;;;;;;;95.28;38.17;;;;;;;;;;5113774;28;20023;-79
2022/09/12 07:25:18;;;;;;;86.25;35.08;;;;;;;;;;5113766;28;20024;-79
2022/09/12 07:27:44;;;;;;;91.32;37.10;;;;;;;;;;5113869;28;20034;-79
2022/09/12 07:30:10;;;;;;;85.72;36.38;;;;;;;;;;5113544;28;20055;-79
2022/09/12 07:32:36;;;;;;;85.63;35.40;;;;;;;;;;5113857;28;20045;-79
2022/09/12 07:35:02;;;;;;;84.60;35.38;;;;;;;;;;5113765;28;20081;-79
2022/09/12 07:37:31;;;;;;;80.10;34.67;;;;;;;;;;5113643;28;20042;-79
2022/09/12 07:39:58;;;;;;;73.63;33.72;;;;;;;;;;5098098;28;20123;-80
2022/09/12 07:42:24;;;;;;;78.70;34.47;;;;;;;;;;5093322;28;20433;-79
2022/09/12 07:44:51;;;;;;;75.22;33.35;;;;;;;;;;5092794;28;20023;-79
2022/09/12 07:47:17;;;;;;;68.20;32.85;;;;;;;;;;5093431;28;20054;-79
2022/09/12 07:49:43;;;;;;;69.53;32.42;;;;;;;;;;5093160;28;20027;-79
2022/09/12 07:52:09;;;;;;;66.82;30.63;;;;;;;;;;5093638;28;20027;-80
2022/09/12 07:54:36;;;;;;;62.70;29.63;;;;;;;;;;5093208;28;20028;-79
2022/09/12 07:57:02;;;;;;;61.42;28.52;;;;;;;;;;5092975;28;20046;-79
2022/09/12 07:59:28;;;;;;;60.72;29.85;;;;;;;;;;5092930;28;20024;-80
2022/09/12 08:01:54;;;;;;;59.38;29.23;;;;;;;;;;5092988;28;20035;-79
2022/09/12 08:04:21;;;;;;;54.53;28.25;;;;;;;;;;5092645;28;20085;-80
2022/09/12 08:06:47;;;;;;;54.55;28.08;;;;;;;;;;5093075;28;20020;-80
2022/09/12 08:09:16;;;;;;;51.10;27.73;;;;;;;;;;5092897;28;20023;-80
2022/09/12 08:11:42;;;;;;;55.53;28.15;;;;;;;;;;5093069;28;20023;-80
2022/09/12 08:14:08;;;;;;;53.75;26.55;;;;;;;;;;5092664;28;20044;-80
2022/09/12 08:16:34;;;;;;;48.15;25.70;;;;;;;;;;5092773;28;20489;-80
2022/09/12 08:19:01;;;;;;;48.17;24.92;;;;;;;;;;5112821;28;20028;-80
2022/09/12 08:21:29;;;;;;;47.25;24.88;;;;;;;;;;5113041;28;20030;-80
2022/09/12 08:23:57;;;;;;;46.38;25.48;;;;;;;;;;5112790;28;20023;-80
2022/09/12 08:26:23;;;;;;;41.83;23.50;;;;;;;;;;5113042;28;20098;-80
2022/09/12 08:28:49;;;;;;;41.88;24.27;;;;;;;;;;5094700;28;20408;-80
2022/09/12 08:31:16;;;;;;;40.75;22.98;;;;;;;;;;5112941;28;20023;-80
2022/09/12 08:33:42;;;;;;;43.30;23.35;;;;;;;;;;5112957;28;20148;-80
2022/09/12 08:36:11;;;;;;;42.28;22.08;;;;;;;;;;5112865;28;20046;-80
2022/09/12 08:38:38;;;;;;;42.15;23.02;;;;;;;;;;5112984;28;20032;-80
2022/09/12 08:41:22;;;;;;;42.40;20.08;;;;;;;;;;5112929;28;20047;-80
2022/09/12 08:43:51;;;;;;;33.60;20.33;;;;;;;;;;5113009;28;20092;-80
2022/09/12 08:46:22;;;;;;;32.53;19.23;;;;;;;;;;5112873;28;20023;-80
2022/09/12 08:48:49;;;;;;;40.30;21.55;;;;;;;;;;5112806;28;20096;-80
2022/09/12 08:51:18;;;;;;;35.97;20.15;;;;;;;;;;5112805;28;20020;-80
2022/09/12 08:53:46;;;;;;;38.58;21.45;;;;;;;;;;5112763;28;20102;-80
2022/09/12 08:56:12;;;;;;;32.78;20.05;;;;;;;;;;5096004;28;20028;-80
2022/09/12 08:58:42;;;;;;;39.58;19.17;;;;;;;;;;5092335;28;20112;-80
2022/09/12 09:01:50;;;;;;;35.88;20.10;;;;;;;;;;5092364;28;20020;-80
2022/09/12 09:04:37;;;;;;;35.28;20.63;;;;;;;;;;5029897;28;20040;-80
2022/09/12 09:07:03;;;;;;;31.48;18.95;;;;;;;;;;5013697;28;20380;-80
2022/09/12 09:09:32;;;;;;;35.53;19.88;;;;;;;;;;5070207;28;20066;-80
2022/09/12 09:12:14;;;;;;;34.85;18.00;;;;;;;;;;5074171;28;20118;-80
2022/09/12 09:14:46;;;;;;;36.08;20.55;;;;;;;;;;5074302;28;20067;-80
2022/09/12 09:17:12;;;;;;;;;;;;;;;;;;5092671;28;20027;-80
2022/09/12 09:19:41;;;;;;;31.38;18.45;;;;;;;;;;5092267;28;19919;-80
2022/09/12 09:22:13;;;;;;;35.97;20.27;;;;;;;;;;5092483;28;20103;-80
2022/09/12 09:24:42;;;;;;;40.03;21.40;;;;;;;;;;5092345;28;20024;-80
2022/09/12 09:27:14;;;;;;;30.85;18.98;;;;;;;;;;5092575;28;20612;-80
2022/09/12 09:29:44;;;;;;;31.30;17.40;;;;;;;;;;5092322;28;20031;-80
2022/09/12 09:32:17;;;;;;;29.65;17.55;;;;;;;;;;5092148;28;20450;-81
2022/09/12 09:34:43;;;;;;;27.88;16.13;;;;;;;;;;5092104;28;20474;-80
2022/09/12 09:37:15;;;;;;;27.08;17.17;;;;;;;;;;5093526;28;20024;-81
2022/09/12 09:39:44;;;;;;;25.77;16.23;;;;;;;;;;5095792;28;20024;-81
2022/09/12 09:42:29;;;;;;;24.83;16.70;;;;;;;;;;5077548;28;20425;-81
2022/09/12 09:44:57;;;;;;;23.85;15.90;;;;;;;;;;5095822;28;20501;-81
2022/09/12 09:47:23;;;;;;;28.55;17.05;;;;;;;;;;5095630;28;20031;-81
2022/09/12 09:49:49;;;;;;;27.17;15.90;;;;;;;;;;5095691;28;20474;-81
2022/09/12 09:52:17;;;;;;;32.80;16.67;;;;;;;;;;5096290;28;20020;-81
2022/09/12 09:54:48;;;;;;;27.40;16.80;;;;;;;;;;5095812;28;20028;-81
2022/09/12 09:57:32;;;;;;;26.17;16.23;;;;;;;;;;5095607;28;20068;-81
2022/09/12 09:59:59;;;;;;;25.65;14.73;;;;;;;;;;5095795;28;20020;-81
2022/09/12 10:02:27;;;;;;;22.20;15.23;;;;;;;;;;5095829;28;20116;-80
2022/09/12 10:04:57;;;;;;;24.33;16.52;;;;;;;;;;5095416;28;20073;-80
2022/09/12 10:07:24;;;;;;;19.25;13.77;;;;;;;;;;5095715;28;20020;-81
2022/09/12 10:10:04;;;;;;;24.05;15.48;;;;;;;;;;5095595;28;20017;-81
2022/09/12 10:12:30;;;;;;;20.80;13.75;;;;;;;;;;5095235;28;20043;-80
2022/09/12 10:15:00;;;;;;;24.13;15.45;;;;;;;;;;5077365;28;20386;-81
2022/09/12 10:17:29;;;;;;;25.73;15.15;;;;;;;;;;5084242;28;20039;-81
2022/09/12 10:19:56;;;;;;;18.30;13.95;;;;;;;;;;5115607;28;20034;-81
2022/09/12 10:22:24;;;;;;;20.33;13.95;;;;;;;;;;5115546;28;20030;-81
2022/09/12 10:24:51;;;;;;;23.17;13.80;;;;;;;;;;5115493;28;20020;-81
2022/09/12 10:27:31;;;;;;;22.05;13.52;;;;;;;;;;5096925;28;20457;-80
2022/09/12 10:30:04;;;;;;;24.42;14.75;;;;;;;;;;5115349;28;20098;-81
2022/09/12 10:32:30;;;;;;;;;;;;;;;;;;5116091;28;20022;-81
2022/09/12 10:34:58;;;;;;;19.77;13.07;;;;;;;;;;5115353;28;19903;-81
2022/09/12 10:37:24;;;;;;;18.95;12.95;;;;;;;;;;5115418;28;20054;-81
2022/09/12 10:39:52;;;;;;;21.48;13.25;;;;;;;;;;5115264;28;20027;-81
2022/09/12 10:42:38;;;;;;;20.40;13.05;;;;;;;;;;5115243;28;20439;-82
2022/09/12 10:45:05;;;;;;;19.00;11.75;;;;;;;;;;5115029;28;20106;-81
2022/09/12 10:47:31;;;;;;;16.38;11.38;;;;;;;;;;5115260;28;20024;-81
2022/09/12 10:50:17;;;;;;;16.17;10.95;;;;;;;;;;5115240;28;20123;-81
2022/09/12 10:52:43;;;;;;;15.93;11.10;;;;;;;;;;5115057;28;20020;-81
2022/09/12 10:55:16;;;;;;;13.93;10.05;;;;;;;;;;5114932;28;20019;-81
2022/09/12 10:57:42;;;;;;;14.13;9.23;;;;;;;;;;5114817;28;20068;-81
2022/09/12 11:00:14;;;;;;;12.85;9.40;;;;;;;;;;5114908;28;20457;-81
2022/09/12 11:02:48;;;;;;;15.60;9.25;;;;;;;;;;5114907;28;20493;-81
2022/09/12 11:05:19;;;;;;;14.80;9.20;;;;;;;;;;5114821;28;20458;-81
2022/09/12 11:07:46;;;;;;;14.40;8.90;;;;;;;;;;5114689;28;20448;-81
2022/09/12 11:10:25;;;;;;;13.07;8.63;;;;;;;;;;5114688;28;20454;-81
2022/09/12 11:13:00;;;;;;;20.13;9.88;;;;;;;;;;5114883;28;20043;-81
2022/09/12 11:15:29;;;;;;;11.07;8.07;;;;;;;;;;5096102;28;20026;-81
2022/09/12 11:18:12;;;;;;;12.80;7.60;;;;;;;;;;5114646;28;20095;-81
2022/09/12 11:20:53;;;;;;;15.32;6.63;;;;;;;;;;5114853;28;20453;-81
2022/09/12 11:23:37;;;;;;;11.32;6.40;;;;;;;;;;5114425;28;20024;-81
2022/09/12 11:26:24;;;;;;;16.45;7.57;;;;;;;;;;5096018;28;20024;-81
2022/09/12 11:29:16;;;;;;;15.98;6.55;;;;;;;;;;5114693;28;20059;-81
2022/09/12 11:31:58;;;;;;;12.43;6.47;;;;;;;;;;5114615;28;20019;-81
2022/09/12 11:34:24;;;;;;;;;;;;;;;;;;5114790;28;20146;-81
2022/09/12 11:37:04;;;;;;;8.75;5.95;;;;;;;;;;5114174;28;20364;-81
2022/09/12 11:39:38;;;;;;;8.98;6.43;;;;;;;;;;5102643;28;20092;-81
2022/09/12 11:42:05;;;;;;;11.10;6.75;;;;;;;;;;5093734;28;20108;-81
2022/09/12 11:44:43;;;;;;;7.50;5.75;;;;;;;;;;5093599;28;20042;-81
2022/09/12 11:47:11;;;;;;;9.02;6.30;;;;;;;;;;5093781;28;20100;-81
2022/09/12 11:49:39;;;;;;;9.75;6.00;;;;;;;;;;5093737;28;20355;-81
2022/09/12 11:52:14;;;;;;;6.15;5.25;;;;;;;;;;5094290;28;20103;-81
2022/09/12 11:54:48;;;;;;;7.55;5.80;;;;;;;;;;5075346;28;20101;-81
2022/09/12 11:57:20;;;;;;;8.57;5.22;;;;;;;;;;5093367;28;20024;-81
2022/09/12 11:59:46;;;;;;;;;;;;;;;;;;5093160;28;20028;-81
2022/09/12 12:02:14;;;;;;;7.35;5.25;;;;;;;;;;5093771;28;19904;-81
2022/09/12 12:05:01;;;;;;;7.40;5.47;;;;;;;;;;5093238;28;20057;-81
2022/09/12 12:07:30;;;;;;;7.40;4.35;;;;;;;;;;5093181;28;20368;-81
2022/09/12 12:09:56;;;;;;;5.47;4.40;;;;;;;;;;5093112;28;20051;-81
2022/09/12 12:12:24;;;;;;;8.68;5.00;;;;;;;;;;5074633;28;20044;-81
2022/09/12 12:14:51;;;;;;;6.45;5.00;;;;;;;;;;5093091;28;20493;-81
2022/09/12 12:17:22;;;;;;;5.85;4.32;;;;;;;;;;5098795;28;20376;-81
2022/09/12 12:19:56;;;;;;;8.65;5.50;;;;;;;;;;5113539;28;20019;-81
2022/09/12 12:22:23;;;;;;;8.57;6.03;;;;;;;;;;5095082;28;20027;-81
2022/09/12 12:24:58;;;;;;;8.88;5.50;;;;;;;;;;5113195;28;20373;-81
2022/09/12 12:27:44;;;;;;;10.55;4.90;;;;;;;;;;5095004;28;20472;-81
2022/09/12 12:30:28;;;;;;;7.63;4.63;;;;;;;;;;5113165;28;20457;-81
2022/09/12 12:33:01;;;;;;;7.57;4.20;;;;;;;;;;5113184;28;20466;-81
2022/09/12 12:35:41;;;;;;;5.25;3.65;;;;;;;;;;5113164;28;20068;-81
2022/09/12 12:38:26;;;;;;;5.53;3.47;;;;;;;;;;5113195;28;20031;-82
2022/09/12 12:40:52;;;;;;;7.80;3.88;;;;;;;;;;5112666;28;20016;-81
2022/09/12 12:43:30;;;;;;;5.40;3.90;;;;;;;;;;5113034;28;20746;-82
2022/09/12 12:46:01;;;;;;;6.57;4.35;;;;;;;;;;5111864;27;20523;-82
2022/09/12 12:48:30;;;;;;;6.80;4.28;;;;;;;;;;5113351;28;20019;-81
2022/09/12 12:51:14;;;;;;;7.00;4.13;;;;;;;;;;5113223;28;20074;-82
2022/09/12 12:53:41;;;;;;;6.63;4.80;;;;;;;;;;5113315;28;20107;-84
2022/09/12 12:56:25;;;;;;;8.50;4.45;;;;;;;;;;5097368;28;20477;-84
2022/09/12 12:58:57;;;;;;;4.47;3.63;;;;;;;;;;5107222;28;20028;-85
2022/09/12 13:01:23;;;;;;;5.10;3.22;;;;;;;;;;5117444;28;20046;-86
2022/09/12 13:03:52;;;;;;;5.53;3.85;;;;;;;;;;5130869;28;20027;-82
2022/09/12 13:06:35;;;;;;;7.28;3.60;;;;;;;;;;5133944;28;20031;-82
2022/09/12 13:09:06;;;;;;;5.85;3.35;;;;;;;;;;5133542;28;20023;-82
2022/09/12 13:11:37;;;;;;;5.47;3.60;;;;;;;;;;5119827;27;20092;-82
2022/09/12 13:14:08;;;;;;;6.55;4.07;;;;;;;;;;5135152;27;20047;-86
2022/09/12 13:16:39;;;;;;;6.85;3.60;;;;;;;;;;5135061;27;20019;-86
2022/09/12 13:19:11;;;;;;;5.95;3.67;;;;;;;;;;5118814;27;20026;-83
2022/09/12 13:21:37;;;;;;;6.15;3.28;;;;;;;;;;5137435;27;20578;-83
2022/09/12 13:24:03;;;;;;;7.22;3.50;;;;;;;;;;5137880;27;20076;-83
2022/09/12 13:26:34;;;;;;;4.95;3.45;;;;;;;;;;5137978;27;20053;-83
2022/09/12 13:29:16;;;;;;;6.07;3.50;;;;;;;;;;5121349;27;20015;-83
2022/09/12 13:31:42;;;;;;;6.22;3.85;;;;;;;;;;5127345;27;20094;-83
2022/09/12 13:34:10;;;;;;;4.88;3.97;;;;;;;;;;5128404;27;20457;-83
2022/09/12 13:36:36;;;;;;;5.32;3.60;;;;;;;;;;5117162;28;20525;-83
2022/09/12 13:39:19;;;;;;;6.88;3.80;;;;;;;;;;5110984;28;20020;-83
2022/09/12 13:41:55;;;;;;;4.88;3.17;;;;;;;;;;5117496;28;20512;-84
2022/09/12 13:44:22;;;;;;;4.47;2.72;;;;;;;;;;5119554;27;20028;-83
2022/09/12 13:46:48;;;;;;;5.25;3.30;;;;;;;;;;5123724;27;20020;-82
2022/09/12 13:49:20;;;;;;;9.57;3.05;;;;;;;;;;5137972;27;20036;-82
2022/09/12 13:51:51;;;;;;;5.78;2.97;;;;;;;;;;5137909;27;20031;-83
2022/09/12 13:54:18;;;;;;;4.70;2.80;;;;;;;;;;5137084;27;20031;-84
2022/09/12 13:56:48;;;;;;;5.32;2.97;;;;;;;;;;5137172;27;20019;-82
2022/09/12 13:59:14;;;;;;;4.25;3.10;;;;;;;;;;5136942;27;20030;-81
2022/09/12 14:01:42;;;;;;;5.43;3.03;;;;;;;;;;5137397;27;20089;-80
2022/09/12 14:06:59;;;;;;;5.10;2.70;;;;;;;;;;5137202;27;20582;-81
2022/09/12 14:09:28;;;;;;;10.30;3.70;;;;;;;;;;5136834;27;20031;-81
2022/09/12 14:11:54;;;;;;;6.18;3.10;;;;;;;;;;5136718;27;20019;-84
2022/09/12 14:14:42;;;;;;;4.65;3.15;;;;;;;;;;5136728;27;20023;-83
2022/09/12 14:17:15;;;;;;;4.88;2.80;;;;;;;;;;5132194;27;20032;-82
2022/09/12 14:19:42;;;;;;;3.47;2.70;;;;;;;;;;5115948;28;20032;-84
2022/09/12 14:22:13;;;;;;;7.03;3.03;;;;;;;;;;5115712;28;20023;-81
2022/09/12 14:24:39;;;;;;;4.33;3.00;;;;;;;;;;5116001;28;20043;-80
2022/09/12 14:27:05;;;;;;;7.07;3.15;;;;;;;;;;5096724;28;20472;-79
2022/09/12 14:29:33;;;;;;;5.90;3.22;;;;;;;;;;5096699;28;20019;-79
2022/09/12 14:32:01;;;;;;;6.15;2.63;;;;;;;;;;5114769;28;20016;-79
2022/09/12 14:34:27;;;;;;;4.68;3.05;;;;;;;;;;5111315;28;20489;-79
2022/09/12 14:36:55;;;;;;;4.68;2.50;;;;;;;;;;5115332;28;20066;-79
2022/09/12 14:39:53;;;;;;;3.38;2.55;;;;;;;;;;5107185;28;20025;-79
2022/09/12 14:42:20;;;;;;;5.00;2.80;;;;;;;;;;5072546;28;20181;-79